Time;durP1;ratioP1;P1;durP2;ratioP2;P2;SDS_P1;SDS_P2;PMS_P1;PMS_P2;Temp;Humidity;BMP_temperature;BMP_pressure;BME280_temperature;BME280_humidity;BME280_pressure;Samples;Min_cycle;Max_cycle;Signal;HPM_P1;HPM_P2
2022/09/11 00:00:32;;;;;;;62.20;35.70;;;;;;;;;;5016635;28;20205;-67
2022/09/11 00:02:57;;;;;;;63.92;35.50;;;;;;;;;;5011438;28;20190;-67
2022/09/11 00:05:22;;;;;;;61.70;35.63;;;;;;;;;;5027937;28;20518;-67
2022/09/11 00:07:48;;;;;;;65.30;36.22;;;;;;;;;;5020981;28;20202;-67
2022/09/11 00:10:13;;;;;;;60.03;34.58;;;;;;;;;;5028173;28;20186;-67
2022/09/11 00:12:38;;;;;;;59.85;33.80;;;;;;;;;;5020553;28;20174;-67
2022/09/11 00:15:04;;;;;;;66.72;35.88;;;;;;;;;;5013738;28;20174;-67
2022/09/11 00:17:29;;;;;;;61.85;35.10;;;;;;;;;;5023359;28;20190;-67
2022/09/11 00:19:55;;;;;;;60.58;36.30;;;;;;;;;;5025888;28;20189;-67
2022/09/11 00:22:20;;;;;;;64.47;35.92;;;;;;;;;;5027217;28;20646;-67
2022/09/11 00:24:46;;;;;;;62.42;35.10;;;;;;;;;;5029706;28;20182;-67
2022/09/11 00:27:11;;;;;;;65.82;35.92;;;;;;;;;;5024155;28;20190;-67
2022/09/11 00:29:36;;;;;;;62.20;35.50;;;;;;;;;;5028210;28;20200;-67
2022/09/11 00:32:03;;;;;;;64.15;36.47;;;;;;;;;;5027898;28;20690;-67
2022/09/11 00:34:28;;;;;;;61.53;35.22;;;;;;;;;;5028842;28;20192;-67
2022/09/11 00:36:53;;;;;;;66.55;35.88;;;;;;;;;;5017745;28;20195;-67
2022/09/11 00:39:20;;;;;;;64.43;36.15;;;;;;;;;;5026310;28;20217;-67
2022/09/11 00:41:45;;;;;;;62.97;35.08;;;;;;;;;;5038520;28;20248;-67
2022/09/11 00:44:11;;;;;;;67.93;36.53;;;;;;;;;;5021074;28;20645;-67
2022/09/11 00:46:43;;;;;;;68.55;38.17;;;;;;;;;;5025423;28;20201;-67
2022/09/11 00:49:31;;;;;;;65.63;36.53;;;;;;;;;;5026819;28;20209;-67
2022/09/11 00:52:25;;;;;;;68.85;36.33;;;;;;;;;;5021331;28;20194;-67
2022/09/11 00:54:56;;;;;;;64.80;35.05;;;;;;;;;;5024338;28;20231;-67
2022/09/11 00:57:25;;;;;;;70.65;37.47;;;;;;;;;;5025847;28;20685;-67
2022/09/11 00:59:54;;;;;;;78.82;39.38;;;;;;;;;;5027413;28;20189;-67
2022/09/11 01:02:21;;;;;;;74.93;38.22;;;;;;;;;;5018086;28;20646;-67
2022/09/11 01:04:47;;;;;;;73.70;39.05;;;;;;;;;;5031971;28;20226;-67
2022/09/11 01:07:14;;;;;;;77.50;39.72;;;;;;;;;;5031783;28;20653;-67
2022/09/11 01:09:40;;;;;;;77.07;38.38;;;;;;;;;;5031510;28;20661;-67
2022/09/11 01:12:12;;;;;;;78.60;39.92;;;;;;;;;;5030949;28;20186;-67
2022/09/11 01:14:46;;;;;;;75.35;37.28;;;;;;;;;;5029181;28;20468;-67
2022/09/11 01:17:37;;;;;;;80.35;40.22;;;;;;;;;;5024042;28;20189;-67
2022/09/11 01:20:27;;;;;;;76.18;37.78;;;;;;;;;;5032168;28;20235;-67
2022/09/11 01:23:24;;;;;;;72.85;39.15;;;;;;;;;;5021361;28;20620;-67
2022/09/11 01:26:11;;;;;;;73.68;37.40;;;;;;;;;;5025512;28;20174;-67
2022/09/11 01:28:43;;;;;;;80.50;38.10;;;;;;;;;;5029667;28;20190;-67
2022/09/11 01:31:13;;;;;;;76.13;39.70;;;;;;;;;;5028892;28;20214;-67
2022/09/11 01:33:46;;;;;;;71.00;38.38;;;;;;;;;;5024479;28;20185;-67
2022/09/11 01:36:27;;;;;;;72.40;39.60;;;;;;;;;;5024578;28;20715;-67
2022/09/11 01:38:57;;;;;;;75.35;39.45;;;;;;;;;;5028362;28;20216;-67
2022/09/11 01:41:26;;;;;;;74.97;39.15;;;;;;;;;;5026306;28;20178;-67
2022/09/11 01:44:01;;;;;;;83.68;39.10;;;;;;;;;;5027739;28;20705;-67
2022/09/11 01:46:27;;;;;;;77.78;38.58;;;;;;;;;;5022511;28;20190;-67
2022/09/11 01:49:00;;;;;;;81.70;39.42;;;;;;;;;;5027611;28;20233;-67
2022/09/11 01:51:29;;;;;;;82.63;41.03;;;;;;;;;;5019934;28;20240;-67
2022/09/11 01:53:58;;;;;;;73.07;37.97;;;;;;;;;;5025120;28;20201;-67
2022/09/11 01:56:29;;;;;;;72.90;38.22;;;;;;;;;;5029104;28;20672;-67
2022/09/11 01:59:02;;;;;;;69.72;37.30;;;;;;;;;;5028983;28;20674;-67
2022/09/11 02:01:37;;;;;;;69.45;36.92;;;;;;;;;;5029921;28;20185;-67
2022/09/11 02:04:12;;;;;;;67.63;35.40;;;;;;;;;;5028754;28;20574;-67
2022/09/11 02:07:10;;;;;;;61.50;34.53;;;;;;;;;;5026920;28;20340;-67
2022/09/11 02:09:42;;;;;;;72.57;36.30;;;;;;;;;;5015581;28;20234;-67
2022/09/11 02:12:11;;;;;;;64.18;35.40;;;;;;;;;;5023816;28;20190;-67
2022/09/11 02:14:46;;;;;;;71.68;36.40;;;;;;;;;;5031133;28;20178;-67
2022/09/11 02:17:32;;;;;;;71.40;36.13;;;;;;;;;;5025532;28;20272;-67
2022/09/11 02:19:59;;;;;;;68.53;35.63;;;;;;;;;;5028161;28;20174;-67
2022/09/11 02:22:24;;;;;;;74.82;38.70;;;;;;;;;;5027348;28;20199;-67
2022/09/11 02:24:50;;;;;;;65.35;36.55;;;;;;;;;;5025746;28;20411;-66
2022/09/11 02:27:20;;;;;;;67.10;36.88;;;;;;;;;;5028387;28;20186;-67
2022/09/11 02:29:46;;;;;;;73.07;36.60;;;;;;;;;;5024496;28;20194;-67
2022/09/11 02:32:11;;;;;;;70.07;36.28;;;;;;;;;;5024406;28;20778;-67
2022/09/11 02:34:40;;;;;;;66.50;36.50;;;;;;;;;;5026635;28;20186;-67
2022/09/11 02:37:10;;;;;;;63.33;34.67;;;;;;;;;;5027798;28;20716;-67
2022/09/11 02:40:11;;;;;;;64.90;35.13;;;;;;;;;;5022289;28;20181;-67
2022/09/11 02:43:02;;;;;;;64.03;34.45;;;;;;;;;;5023361;28;20197;-67
2022/09/11 02:45:53;;;;;;;63.70;33.85;;;;;;;;;;5028531;28;20231;-67
2022/09/11 02:48:37;;;;;;;61.17;34.67;;;;;;;;;;5023936;28;20216;-67
2022/09/11 02:51:18;;;;;;;55.22;31.75;;;;;;;;;;5024992;28;20220;-67
2022/09/11 02:54:07;;;;;;;57.17;32.22;;;;;;;;;;5026973;28;20569;-67
2022/09/11 02:56:42;;;;;;;60.60;33.75;;;;;;;;;;5028823;28;20232;-67
2022/09/11 02:59:16;;;;;;;78.38;40.40;;;;;;;;;;5027811;28;20493;-67
2022/09/11 03:01:53;;;;;;;76.75;39.17;;;;;;;;;;5025768;28;20182;-67
2022/09/11 03:04:21;;;;;;;84.90;38.45;;;;;;;;;;5024565;28;20204;-67
2022/09/11 03:06:48;;;;;;;99.03;41.22;;;;;;;;;;5025777;28;20189;-67
2022/09/11 03:09:15;;;;;;;87.47;39.75;;;;;;;;;;5026748;28;20206;-67
2022/09/11 03:11:41;;;;;;;92.35;42.30;;;;;;;;;;5023897;28;20190;-67
2022/09/11 03:14:06;;;;;;;141.15;40.63;;;;;;;;;;5027146;28;20500;-67
2022/09/11 03:16:32;;;;;;;200.70;44.67;;;;;;;;;;5026056;28;20226;-67
2022/09/11 03:18:57;;;;;;;110.10;41.42;;;;;;;;;;5025775;28;20170;-67
2022/09/11 03:21:23;;;;;;;261.38;48.13;;;;;;;;;;5027236;28;20276;-67
2022/09/11 03:23:48;;;;;;;111.85;41.90;;;;;;;;;;5026182;28;20207;-67
2022/09/11 03:26:16;;;;;;;143.43;40.53;;;;;;;;;;5023077;28;20657;-67
2022/09/11 03:28:42;;;;;;;122.20;41.40;;;;;;;;;;5022655;28;20645;-67
2022/09/11 03:31:08;;;;;;;112.88;42.15;;;;;;;;;;5028070;28;20174;-67
2022/09/11 03:33:33;;;;;;;174.07;39.25;;;;;;;;;;5025348;28;20189;-67
2022/09/11 03:35:59;;;;;;;103.38;41.17;;;;;;;;;;5022738;28;20782;-68
2022/09/11 03:38:24;;;;;;;98.68;40.80;;;;;;;;;;5021955;28;20634;-67
2022/09/11 03:40:49;;;;;;;108.18;41.08;;;;;;;;;;5025675;28;20712;-67
2022/09/11 03:43:15;;;;;;;113.53;39.97;;;;;;;;;;5027410;28;20190;-67
2022/09/11 03:45:41;;;;;;;124.00;38.20;;;;;;;;;;5025525;28;20179;-67
2022/09/11 03:48:06;;;;;;;95.32;37.38;;;;;;;;;;5024198;28;20233;-67
2022/09/11 03:50:32;;;;;;;139.60;34.70;;;;;;;;;;5027027;28;20208;-67
2022/09/11 03:52:58;;;;;;;131.30;36.28;;;;;;;;;;5018026;28;20178;-67
2022/09/11 03:55:23;;;;;;;137.85;37.63;;;;;;;;;;5022951;28;20274;-67
2022/09/11 03:57:48;;;;;;;112.53;37.10;;;;;;;;;;5020474;28;20801;-67
2022/09/11 04:00:14;;;;;;;162.85;39.90;;;;;;;;;;5024791;28;20194;-67
2022/09/11 04:02:40;;;;;;;82.88;36.60;;;;;;;;;;5018957;28;20204;-67
2022/09/11 04:05:07;;;;;;;134.88;37.55;;;;;;;;;;5019796;28;20229;-67
2022/09/11 04:07:33;;;;;;;108.40;36.58;;;;;;;;;;5011863;28;20584;-67
2022/09/11 04:09:59;;;;;;;113.20;35.03;;;;;;;;;;5023027;28;20399;-67
2022/09/11 04:12:24;;;;;;;125.05;37.47;;;;;;;;;;5024658;28;20596;-67
2022/09/11 04:14:50;;;;;;;93.10;36.38;;;;;;;;;;5025524;28;20213;-67
2022/09/11 04:17:16;;;;;;;84.68;35.00;;;;;;;;;;5018623;28;20197;-67
2022/09/11 04:19:41;;;;;;;93.28;35.25;;;;;;;;;;5025532;28;20232;-67
2022/09/11 04:22:07;;;;;;;111.28;34.78;;;;;;;;;;5023968;28;20177;-67
2022/09/11 04:24:33;;;;;;;99.15;35.65;;;;;;;;;;5024810;28;20205;-67
2022/09/11 04:26:59;;;;;;;82.32;33.05;;;;;;;;;;5012636;28;20181;-68
2022/09/11 04:29:25;;;;;;;66.78;33.10;;;;;;;;;;5019863;28;20288;-67
2022/09/11 04:31:51;;;;;;;74.80;34.03;;;;;;;;;;5026377;28;20705;-67
2022/09/11 04:34:17;;;;;;;193.68;39.28;;;;;;;;;;5023674;28;20642;-67
2022/09/11 04:36:42;;;;;;;210.20;42.55;;;;;;;;;;5018007;28;20273;-67
2022/09/11 04:39:08;;;;;;;120.93;38.33;;;;;;;;;;5014578;28;20183;-67
2022/09/11 04:41:33;;;;;;;121.93;39.90;;;;;;;;;;5039227;28;20217;-67
2022/09/11 04:43:59;;;;;;;211.65;42.80;;;;;;;;;;5028015;28;20339;-67
2022/09/11 04:46:25;;;;;;;117.18;40.47;;;;;;;;;;5026229;28;20185;-67
2022/09/11 04:48:53;;;;;;;154.65;41.08;;;;;;;;;;5019380;28;20194;-67
2022/09/11 04:51:26;;;;;;;87.30;37.65;;;;;;;;;;5019293;28;20221;-67
2022/09/11 04:54:02;;;;;;;87.65;38.88;;;;;;;;;;5026541;28;20188;-67
2022/09/11 04:56:30;;;;;;;71.78;36.97;;;;;;;;;;5026170;28;20196;-67
2022/09/11 04:59:01;;;;;;;83.65;37.83;;;;;;;;;;5023667;28;20187;-67
2022/09/11 05:01:28;;;;;;;68.22;37.08;;;;;;;;;;5022898;28;20186;-67
2022/09/11 05:03:55;;;;;;;75.10;37.17;;;;;;;;;;5026094;28;20186;-67
2022/09/11 05:06:21;;;;;;;129.27;40.13;;;;;;;;;;5025194;28;20264;-67
2022/09/11 05:08:47;;;;;;;71.00;37.05;;;;;;;;;;5021921;28;20221;-67
2022/09/11 05:11:15;;;;;;;81.22;37.47;;;;;;;;;;5016547;28;20182;-67
2022/09/11 05:13:41;;;;;;;119.75;39.15;;;;;;;;;;5025289;28;20182;-67
2022/09/11 05:16:09;;;;;;;113.50;37.70;;;;;;;;;;5023773;28;20202;-67
2022/09/11 05:18:39;;;;;;;102.90;37.47;;;;;;;;;;5016837;28;20182;-67
2022/09/11 05:21:10;;;;;;;91.95;39.08;;;;;;;;;;5026260;28;20193;-67
2022/09/11 05:23:35;;;;;;;106.78;37.50;;;;;;;;;;5018136;28;20182;-67
2022/09/11 05:26:03;;;;;;;170.65;38.97;;;;;;;;;;5026473;28;20466;-67
2022/09/11 05:28:29;;;;;;;145.90;41.95;;;;;;;;;;5026119;28;20669;-67
2022/09/11 05:30:55;;;;;;;108.10;39.42;;;;;;;;;;5021936;28;20263;-67
2022/09/11 05:33:25;;;;;;;83.78;37.55;;;;;;;;;;5022006;28;20186;-67
2022/09/11 05:35:52;;;;;;;87.32;37.33;;;;;;;;;;5022129;28;20221;-67
2022/09/11 05:38:18;;;;;;;69.57;34.88;;;;;;;;;;5021408;28;20198;-67
2022/09/11 05:40:45;;;;;;;90.35;35.40;;;;;;;;;;5020347;28;20189;-67
2022/09/11 05:43:11;;;;;;;66.35;35.63;;;;;;;;;;5021816;28;20201;-68
2022/09/11 05:45:37;;;;;;;64.72;33.80;;;;;;;;;;5027153;28;20201;-67
2022/09/11 05:48:02;;;;;;;84.03;32.97;;;;;;;;;;5025510;28;20206;-67
2022/09/11 05:50:30;;;;;;;56.92;30.10;;;;;;;;;;5025869;28;20272;-67
2022/09/11 05:52:56;;;;;;;82.20;32.97;;;;;;;;;;5027805;28;20213;-67
2022/09/11 05:55:21;;;;;;;64.63;32.47;;;;;;;;;;5015094;28;20729;-66
2022/09/11 05:57:46;;;;;;;91.22;31.02;;;;;;;;;;5026903;28;20222;-66
2022/09/11 06:00:12;;;;;;;131.73;26.23;;;;;;;;;;5021513;28;20214;-67
2022/09/11 06:02:37;;;;;;;199.55;26.75;;;;;;;;;;5022297;28;20213;-67
2022/09/11 06:05:03;;;;;;;69.10;27.30;;;;;;;;;;5018902;28;20230;-67
2022/09/11 06:07:29;;;;;;;128.77;29.75;;;;;;;;;;5028401;28;20189;-67
2022/09/11 06:09:55;;;;;;;77.45;29.52;;;;;;;;;;5019970;28;20761;-67
2022/09/11 06:12:20;;;;;;;110.25;28.92;;;;;;;;;;5024403;28;20290;-67
2022/09/11 06:14:46;;;;;;;104.18;30.25;;;;;;;;;;5022056;28;20196;-67
2022/09/11 06:17:11;;;;;;;46.67;25.75;;;;;;;;;;5020381;28;20174;-67
2022/09/11 06:19:36;;;;;;;71.57;27.42;;;;;;;;;;5027382;28;20202;-67
2022/09/11 06:22:02;;;;;;;66.63;24.98;;;;;;;;;;4333767;28;10021626;-67
2022/09/11 06:24:27;;;;;;;69.82;26.02;;;;;;;;;;5007553;28;20343;-67
2022/09/11 06:26:52;;;;;;;79.35;24.65;;;;;;;;;;5010198;28;20186;-67
2022/09/11 06:29:18;;;;;;;47.58;24.40;;;;;;;;;;5016830;28;20202;-67
2022/09/11 06:31:46;;;;;;;94.78;25.10;;;;;;;;;;5024668;28;20689;-67
2022/09/11 06:34:12;;;;;;;79.43;25.15;;;;;;;;;;5019894;28;20696;-67
2022/09/11 06:36:38;;;;;;;98.15;24.38;;;;;;;;;;5022768;28;20192;-67
2022/09/11 06:39:04;;;;;;;87.13;24.85;;;;;;;;;;5020141;28;20594;-67
2022/09/11 06:41:29;;;;;;;50.65;21.65;;;;;;;;;;5023056;28;20182;-67
2022/09/11 06:43:55;;;;;;;38.42;20.75;;;;;;;;;;5020919;28;20284;-67
2022/09/11 06:46:22;;;;;;;49.60;23.55;;;;;;;;;;5022399;28;20186;-67
2022/09/11 06:48:49;;;;;;;54.25;22.65;;;;;;;;;;5017766;28;20222;-67
2022/09/11 06:51:16;;;;;;;87.38;21.98;;;;;;;;;;5025884;28;20190;-66
2022/09/11 06:53:42;;;;;;;54.75;23.15;;;;;;;;;;5020683;28;20183;-66
2022/09/11 06:56:16;;;;;;;44.63;22.75;;;;;;;;;;5020449;28;20240;-66
2022/09/11 06:58:42;;;;;;;30.70;19.60;;;;;;;;;;5019040;28;20285;-66
2022/09/11 07:01:13;;;;;;;42.78;23.48;;;;;;;;;;5020163;28;20516;-66
2022/09/11 07:03:44;;;;;;;34.15;21.45;;;;;;;;;;5023979;28;20210;-66
2022/09/11 07:06:11;;;;;;;33.65;21.38;;;;;;;;;;5020405;28;20234;-66
2022/09/11 07:08:37;;;;;;;30.98;21.80;;;;;;;;;;5019440;28;20293;-66
2022/09/11 07:11:04;;;;;;;32.65;22.17;;;;;;;;;;5020164;28;20280;-66
2022/09/11 07:13:31;;;;;;;33.22;21.33;;;;;;;;;;5018798;28;20194;-66
2022/09/11 07:16:05;;;;;;;26.38;19.58;;;;;;;;;;5020689;28;20272;-66
2022/09/11 07:18:42;;;;;;;30.08;21.08;;;;;;;;;;5018791;28;20222;-65
2022/09/11 07:21:16;;;;;;;28.05;20.00;;;;;;;;;;5010966;28;20713;-66
2022/09/11 07:23:45;;;;;;;26.15;21.35;;;;;;;;;;5013605;28;20191;-66
2022/09/11 07:26:11;;;;;;;25.40;20.25;;;;;;;;;;5017324;28;20260;-67
2022/09/11 07:28:37;;;;;;;23.38;19.08;;;;;;;;;;5023989;28;20332;-66
2022/09/11 07:31:11;;;;;;;25.95;19.58;;;;;;;;;;5025102;28;20182;-66
2022/09/11 07:33:44;;;;;;;24.98;19.83;;;;;;;;;;5023281;28;20186;-66
2022/09/11 07:36:11;;;;;;;25.38;20.00;;;;;;;;;;5023568;28;20845;-67
2022/09/11 07:38:39;;;;;;;25.92;21.10;;;;;;;;;;5023774;28;20193;-66
2022/09/11 07:41:05;;;;;;;22.90;19.85;;;;;;;;;;5023391;28;20466;-67
2022/09/11 07:43:30;;;;;;;23.77;20.35;;;;;;;;;;5025757;28;20612;-66
2022/09/11 07:45:55;;;;;;;26.25;20.05;;;;;;;;;;5020965;28;20183;-66
2022/09/11 07:48:21;;;;;;;26.70;20.55;;;;;;;;;;5019538;28;20202;-67
2022/09/11 07:51:03;;;;;;;24.92;21.05;;;;;;;;;;5025288;28;20178;-66
2022/09/11 07:53:36;;;;;;;26.17;20.73;;;;;;;;;;5026844;28;20645;-66
2022/09/11 07:56:09;;;;;;;26.27;21.42;;;;;;;;;;5018505;28;20193;-66
2022/09/11 07:58:37;;;;;;;24.55;19.70;;;;;;;;;;5016873;28;20177;-66
2022/09/11 08:01:04;;;;;;;24.77;19.90;;;;;;;;;;5028130;28;20649;-66
2022/09/11 08:03:31;;;;;;;27.23;21.45;;;;;;;;;;5019928;28;20746;-66
2022/09/11 08:06:01;;;;;;;24.85;21.45;;;;;;;;;;5024123;28;20610;-66
2022/09/11 08:08:28;;;;;;;26.23;20.85;;;;;;;;;;5029913;28;20561;-66
2022/09/11 08:11:01;;;;;;;28.63;21.42;;;;;;;;;;5025958;28;20177;-66
2022/09/11 08:13:27;;;;;;;23.90;19.85;;;;;;;;;;5023204;28;20194;-66
2022/09/11 08:15:52;;;;;;;21.02;17.80;;;;;;;;;;5026398;28;20593;-66
2022/09/11 08:18:18;;;;;;;23.25;20.17;;;;;;;;;;5025908;28;20198;-66
2022/09/11 08:20:43;;;;;;;21.95;18.92;;;;;;;;;;5027719;28;20630;-66
2022/09/11 08:23:09;;;;;;;20.30;18.08;;;;;;;;;;5028231;28;20641;-66
2022/09/11 08:25:35;;;;;;;22.15;19.17;;;;;;;;;;5022356;28;20193;-66
2022/09/11 08:28:01;;;;;;;24.15;18.80;;;;;;;;;;5022818;28;20186;-68
2022/09/11 08:30:27;;;;;;;21.73;18.23;;;;;;;;;;5023349;28;20185;-66
2022/09/11 08:32:52;;;;;;;22.33;18.00;;;;;;;;;;5027762;28;20562;-66
2022/09/11 08:35:18;;;;;;;23.75;18.38;;;;;;;;;;5030154;28;20197;-66
2022/09/11 08:37:43;;;;;;;21.65;18.30;;;;;;;;;;5026257;28;20178;-66
2022/09/11 08:40:10;;;;;;;22.73;17.70;;;;;;;;;;5018024;28;20232;-66
2022/09/11 08:42:39;;;;;;;22.45;17.58;;;;;;;;;;5018940;28;20277;-66
2022/09/11 08:45:06;;;;;;;20.70;17.63;;;;;;;;;;5018266;28;20178;-66
2022/09/11 08:47:35;;;;;;;20.25;16.65;;;;;;;;;;5017857;28;20273;-66
2022/09/11 08:50:07;;;;;;;22.95;18.13;;;;;;;;;;5020214;28;20198;-66
2022/09/11 08:52:35;;;;;;;19.58;14.85;;;;;;;;;;5015002;28;20197;-66
2022/09/11 08:55:01;;;;;;;18.90;14.82;;;;;;;;;;5016697;28;20187;-66
2022/09/11 08:57:53;;;;;;;19.52;15.77;;;;;;;;;;5024482;28;20688;-66
2022/09/11 09:00:20;;;;;;;16.20;14.13;;;;;;;;;;5025437;28;20657;-66
2022/09/11 09:03:19;;;;;;;16.58;14.77;;;;;;;;;;5024241;28;20186;-66
2022/09/11 09:05:55;;;;;;;17.17;15.20;;;;;;;;;;5016307;28;20253;-67
2022/09/11 09:08:32;;;;;;;19.38;14.65;;;;;;;;;;5011387;28;20206;-66
2022/09/11 09:11:30;;;;;;;19.15;14.52;;;;;;;;;;5026032;28;20185;-67
2022/09/11 09:14:04;;;;;;;16.42;13.50;;;;;;;;;;5027358;28;20204;-67
2022/09/11 09:16:52;;;;;;;20.50;13.77;;;;;;;;;;5027577;28;20269;-68
2022/09/11 09:19:41;;;;;;;15.80;12.45;;;;;;;;;;5027014;28;20189;-68
2022/09/11 09:22:22;;;;;;;18.88;12.88;;;;;;;;;;5027682;28;20614;-67
2022/09/11 09:24:49;;;;;;;17.30;13.05;;;;;;;;;;5032495;28;20190;-67
2022/09/11 09:27:23;;;;;;;13.98;11.05;;;;;;;;;;5030937;28;20280;-67
2022/09/11 09:29:53;;;;;;;15.13;10.98;;;;;;;;;;5020210;28;20210;-67
2022/09/11 09:32:27;;;;;;;14.07;11.98;;;;;;;;;;5027839;28;20213;-67
2022/09/11 09:34:58;;;;;;;15.18;10.95;;;;;;;;;;5020302;28;20178;-67
2022/09/11 09:37:25;;;;;;;12.32;10.70;;;;;;;;;;5027377;28;20178;-68
2022/09/11 09:39:51;;;;;;;11.35;9.60;;;;;;;;;;5022887;28;20258;-67
2022/09/11 09:42:31;;;;;;;12.23;9.45;;;;;;;;;;5038835;28;20269;-68
2022/09/11 09:45:26;;;;;;;14.30;10.93;;;;;;;;;;5026410;28;20186;-68
2022/09/11 09:47:52;;;;;;;14.60;11.32;;;;;;;;;;5027897;28;20179;-67
2022/09/11 09:50:21;;;;;;;13.00;10.90;;;;;;;;;;5032300;28;20205;-67
2022/09/11 09:52:48;;;;;;;13.55;9.60;;;;;;;;;;5031104;28;20796;-67
2022/09/11 09:55:16;;;;;;;10.80;9.25;;;;;;;;;;5032158;28;20217;-67
2022/09/11 09:57:42;;;;;;;11.38;7.90;;;;;;;;;;5030774;28;20218;-67
2022/09/11 10:00:08;;;;;;;10.85;8.15;;;;;;;;;;5023243;28;20191;-67
2022/09/11 10:02:47;;;;;;;9.60;7.05;;;;;;;;;;5030241;28;20637;-67
2022/09/11 10:05:16;;;;;;;6.80;4.18;;;;;;;;;;5029769;28;20756;-68
2022/09/11 10:07:46;;;;;;;7.68;4.45;;;;;;;;;;5032219;28;20197;-67
2022/09/11 10:10:21;;;;;;;5.38;4.28;;;;;;;;;;5029987;28;20570;-67
2022/09/11 10:12:47;;;;;;;5.60;3.90;;;;;;;;;;5024703;28;20190;-67
2022/09/11 10:15:21;;;;;;;5.70;2.78;;;;;;;;;;5026913;28;20611;-69
2022/09/11 10:17:47;;;;;;;5.63;4.90;;;;;;;;;;5031910;28;20304;-68
2022/09/11 10:20:18;;;;;;;6.85;5.22;;;;;;;;;;5027430;28;20289;-68
2022/09/11 10:22:44;;;;;;;6.57;4.38;;;;;;;;;;5031862;28;20190;-68
2022/09/11 10:25:15;;;;;;;7.88;4.60;;;;;;;;;;5027796;28;20190;-67
2022/09/11 10:27:52;;;;;;;6.93;4.28;;;;;;;;;;5030759;28;20197;-67
2022/09/11 10:30:23;;;;;;;6.82;4.90;;;;;;;;;;5025778;28;20664;-68
2022/09/11 10:32:49;;;;;;;6.15;4.00;;;;;;;;;;5025299;28;20725;-67
2022/09/11 10:35:16;;;;;;;8.10;3.53;;;;;;;;;;5018700;28;20203;-67
2022/09/11 10:37:42;;;;;;;4.88;2.72;;;;;;;;;;5028590;28;20185;-67
2022/09/11 10:40:19;;;;;;;4.97;3.33;;;;;;;;;;5031874;28;20178;-67
2022/09/11 10:42:45;;;;;;;4.38;3.15;;;;;;;;;;5031128;28;20207;-68
2022/09/11 10:45:16;;;;;;;6.15;2.75;;;;;;;;;;5028389;28;20274;-67
2022/09/11 10:47:41;;;;;;;6.53;3.20;;;;;;;;;;5031315;28;20244;-67
2022/09/11 10:50:21;;;;;;;7.15;3.35;;;;;;;;;;5022142;28;20570;-66
2022/09/11 10:53:11;;;;;;;4.40;2.72;;;;;;;;;;5019701;28;20611;-67
2022/09/11 10:55:44;;;;;;;6.85;3.33;;;;;;;;;;5029429;28;20622;-66
2022/09/11 10:58:17;;;;;;;6.35;3.05;;;;;;;;;;5030621;28;20177;-67
2022/09/11 11:00:43;;;;;;;7.28;2.67;;;;;;;;;;5030178;28;20323;-66
2022/09/11 11:03:16;;;;;;;4.70;2.95;;;;;;;;;;5028887;28;20178;-67
2022/09/11 11:06:07;;;;;;;5.18;2.95;;;;;;;;;;5014333;28;20234;-67
2022/09/11 11:08:58;;;;;;;4.25;2.72;;;;;;;;;;5028111;28;20205;-67
2022/09/11 11:11:27;;;;;;;5.25;2.53;;;;;;;;;;5031146;28;20662;-67
2022/09/11 11:14:08;;;;;;;4.55;2.45;;;;;;;;;;5031034;28;20185;-67
2022/09/11 11:16:52;;;;;;;3.67;2.45;;;;;;;;;;5018813;28;20191;-66
2022/09/11 11:19:45;;;;;;;6.95;2.50;;;;;;;;;;5019897;28;20713;-66
2022/09/11 11:22:44;;;;;;;3.10;2.00;;;;;;;;;;5022538;28;20203;-67
2022/09/11 11:25:43;;;;;;;4.90;2.63;;;;;;;;;;5023207;28;20269;-67
2022/09/11 11:28:38;;;;;;;4.63;1.67;;;;;;;;;;5027314;28;20273;-65
2022/09/11 11:31:25;;;;;;;3.67;1.95;;;;;;;;;;5019531;28;20196;-66
2022/09/11 11:34:10;;;;;;;3.85;1.70;;;;;;;;;;5027520;28;20347;-65
2022/09/11 11:36:45;;;;;;;3.92;2.08;;;;;;;;;;5017807;28;20178;-66
2022/09/11 11:39:29;;;;;;;4.72;2.10;;;;;;;;;;5028283;28;20186;-65
2022/09/11 11:42:15;;;;;;;2.80;1.88;;;;;;;;;;5017689;28;20224;-65
2022/09/11 11:44:51;;;;;;;4.55;1.88;;;;;;;;;;5025233;28;20225;-65
2022/09/11 11:47:24;;;;;;;3.63;1.65;;;;;;;;;;5027537;28;20444;-65
2022/09/11 11:50:04;;;;;;;5.97;1.83;;;;;;;;;;5025669;28;20299;-66
2022/09/11 11:52:39;;;;;;;4.28;1.70;;;;;;;;;;5026139;28;20178;-65
2022/09/11 11:55:23;;;;;;;3.22;2.03;;;;;;;;;;5026320;28;20630;-65
2022/09/11 11:58:21;;;;;;;5.57;3.45;;;;;;;;;;5025687;28;20186;-66
2022/09/11 12:00:55;;;;;;;4.40;3.55;;;;;;;;;;5020963;28;20556;-65
2022/09/11 12:03:28;;;;;;;5.72;3.67;;;;;;;;;;5024472;28;20186;-65
2022/09/11 12:05:54;;;;;;;4.55;3.88;;;;;;;;;;5024585;28;20719;-65
2022/09/11 12:08:20;;;;;;;7.35;3.95;;;;;;;;;;5026606;28;20198;-65
2022/09/11 12:11:03;;;;;;;5.18;3.53;;;;;;;;;;5025964;28;20191;-66
2022/09/11 12:13:32;;;;;;;4.80;3.72;;;;;;;;;;5027298;28;20189;-65
2022/09/11 12:16:18;;;;;;;3.90;3.10;;;;;;;;;;5026317;28;20208;-65
2022/09/11 12:19:03;;;;;;;4.72;3.30;;;;;;;;;;5026402;28;20569;-66
2022/09/11 12:21:30;;;;;;;5.93;3.38;;;;;;;;;;5024198;28;20780;-65
2022/09/11 12:23:55;;;;;;;5.00;3.35;;;;;;;;;;5027773;28;20304;-66
2022/09/11 12:26:25;;;;;;;4.85;3.10;;;;;;;;;;5025666;28;20190;-66
2022/09/11 12:29:13;;;;;;;5.75;2.55;;;;;;;;;;5025501;28;20255;-66
2022/09/11 12:31:50;;;;;;;5.10;2.25;;;;;;;;;;5025063;28;20217;-66
2022/09/11 12:34:24;;;;;;;3.85;2.13;;;;;;;;;;5027429;28;20260;-66
2022/09/11 12:37:02;;;;;;;3.53;2.17;;;;;;;;;;5027740;28;20327;-66
2022/09/11 12:39:43;;;;;;;7.32;1.88;;;;;;;;;;5021623;28;20190;-66
2022/09/11 12:42:26;;;;;;;2.47;2.28;;;;;;;;;;5028154;28;20503;-67
2022/09/11 12:44:52;;;;;;;5.65;2.40;;;;;;;;;;5022900;28;20239;-66
2022/09/11 12:47:22;;;;;;;5.97;2.20;;;;;;;;;;5026432;28;20277;-65
2022/09/11 12:50:03;;;;;;;4.68;2.40;;;;;;;;;;5024353;28;20202;-66
2022/09/11 12:52:39;;;;;;;3.00;2.15;;;;;;;;;;5026066;28;20280;-66
2022/09/11 12:55:28;;;;;;;4.18;2.20;;;;;;;;;;5022193;28;20642;-67
2022/09/11 12:57:56;;;;;;;5.35;1.90;;;;;;;;;;5028755;28;20217;-65
2022/09/11 13:00:35;;;;;;;2.90;1.92;;;;;;;;;;5028602;28;20324;-65
2022/09/11 13:03:03;;;;;;;3.15;1.98;;;;;;;;;;5020819;28;20181;-65
2022/09/11 13:05:34;;;;;;;4.03;2.90;;;;;;;;;;5030757;28;20217;-68
2022/09/11 13:08:22;;;;;;;2.97;1.50;;;;;;;;;;5031045;28;20196;-65
2022/09/11 13:10:49;;;;;;;3.40;1.60;;;;;;;;;;5027729;28;20727;-66
2022/09/11 13:13:42;;;;;;;3.70;2.22;;;;;;;;;;5030697;28;20197;-66
2022/09/11 13:16:33;;;;;;;3.42;1.80;;;;;;;;;;5027182;28;20251;-65
2022/09/11 13:19:12;;;;;;;4.25;2.00;;;;;;;;;;5025054;28;20202;-65
2022/09/11 13:21:40;;;;;;;5.57;2.25;;;;;;;;;;5027258;28;20202;-66
2022/09/11 13:24:24;;;;;;;5.85;2.15;;;;;;;;;;5027883;28;20243;-66
2022/09/11 13:26:55;;;;;;;2.58;1.50;;;;;;;;;;5025213;28;20276;-66
2022/09/11 13:29:28;;;;;;;3.13;2.28;;;;;;;;;;5029368;28;20210;-66
2022/09/11 13:31:54;;;;;;;3.65;1.85;;;;;;;;;;5029085;28;20240;-66
2022/09/11 13:34:23;;;;;;;5.20;1.85;;;;;;;;;;5031824;28;20193;-67
2022/09/11 13:36:49;;;;;;;4.13;1.70;;;;;;;;;;5029792;28;20190;-66
2022/09/11 13:39:17;;;;;;;1.70;1.60;;;;;;;;;;5030774;28;20187;-67
2022/09/11 13:41:45;;;;;;;2.90;1.15;;;;;;;;;;5032291;28;20297;-67
2022/09/11 13:44:21;;;;;;;4.15;2.08;;;;;;;;;;5031170;28;20280;-65
2022/09/11 13:46:50;;;;;;;3.80;1.67;;;;;;;;;;5031663;28;20209;-67
2022/09/11 13:49:16;;;;;;;4.13;1.90;;;;;;;;;;5032262;28;20206;-66
2022/09/11 13:51:46;;;;;;;2.15;1.60;;;;;;;;;;5032116;28;20586;-66
2022/09/11 13:54:17;;;;;;;3.17;1.88;;;;;;;;;;5032340;28;20201;-66
2022/09/11 13:56:49;;;;;;;2.10;1.80;;;;;;;;;;5032273;28;20572;-67
2022/09/11 13:59:44;;;;;;;3.33;2.05;;;;;;;;;;5031604;28;20171;-67
2022/09/11 14:02:48;;;;;;;2.33;1.80;;;;;;;;;;5029091;28;20650;-65
2022/09/11 14:05:19;;;;;;;2.28;2.08;;;;;;;;;;5031286;28;20236;-66
2022/09/11 14:08:16;;;;;;;2.13;1.85;;;;;;;;;;5029559;28;20186;-65
2022/09/11 14:10:42;;;;;;;3.83;1.95;;;;;;;;;;5028211;28;20202;-65
2022/09/11 14:13:21;;;;;;;4.20;1.90;;;;;;;;;;5025776;28;20193;-66
2022/09/11 14:15:51;;;;;;;4.22;1.83;;;;;;;;;;5029869;28;20189;-66
2022/09/11 14:18:25;;;;;;;3.13;1.95;;;;;;;;;;5029034;28;20320;-65
2022/09/11 14:20:52;;;;;;;2.90;2.05;;;;;;;;;;5026859;28;20522;-68
2022/09/11 14:23:26;;;;;;;2.85;1.50;;;;;;;;;;5029361;28;20190;-66
2022/09/11 14:26:15;;;;;;;3.50;1.58;;;;;;;;;;5027626;28;20793;-66
2022/09/11 14:28:52;;;;;;;2.33;1.40;;;;;;;;;;5029257;28;20186;-68
2022/09/11 14:31:32;;;;;;;2.35;1.40;;;;;;;;;;5028453;28;20210;-68
2022/09/11 14:34:25;;;;;;;3.40;2.10;;;;;;;;;;5027909;28;20231;-70
2022/09/11 14:37:02;;;;;;;6.03;2.63;;;;;;;;;;5022583;28;20204;-68
2022/09/11 14:39:40;;;;;;;4.20;2.50;;;;;;;;;;5019364;28;20269;-67
2022/09/11 14:42:17;;;;;;;3.53;2.70;;;;;;;;;;5029913;28;20683;-69
2022/09/11 14:44:42;;;;;;;5.63;3.10;;;;;;;;;;5028692;28;20205;-68
2022/09/11 14:47:19;;;;;;;5.07;3.53;;;;;;;;;;5025905;28;20756;-67
2022/09/11 14:49:45;;;;;;;4.72;2.92;;;;;;;;;;5028564;28;20190;-67